Time;durP1;ratioP1;P1;durP2;ratioP2;P2;SDS_P1;SDS_P2;PMS_P1;PMS_P2;Temp;Humidity;BMP_temperature;BMP_pressure;BME280_temperature;BME280_humidity;BME280_pressure;Samples;Min_cycle;Max_cycle;Signal;HPM_P1;HPM_P2
2023/12/07 00:00:14;;;;;;;0.60;0.60;;;;;;;9.71;100.00;7754.41;6184784;23;20225;-61
2023/12/07 00:02:41;;;;;;;0.77;0.50;;;;;;;9.64;100.00;8073.16;6184651;23;20178;-60
2023/12/07 00:05:09;;;;;;;0.73;0.50;;;;;;;9.74;100.00;7435.09;6184299;23;20629;-59
2023/12/07 00:07:36;;;;;;;0.57;0.57;;;;;;;9.75;100.00;6795.72;6184290;23;20172;-60
2023/12/07 00:10:05;;;;;;;0.60;0.60;;;;;;;9.59;100.00;6473.59;6184649;23;20162;-61
2023/12/07 00:12:32;;;;;;;2.13;0.63;;;;;;;9.64;100.00;6474.31;6183857;23;20163;-60
2023/12/07 00:14:59;;;;;;;0.50;0.50;;;;;;;9.68;100.00;6794.66;6184641;23;20529;-60
2023/12/07 00:17:26;;;;;;;0.30;0.30;;;;;;;9.56;100.00;6792.78;6184190;23;20185;-60
2023/12/07 00:19:53;;;;;;;0.67;0.67;;;;;;;9.71;100.00;6155.66;6184476;23;20162;-61
2023/12/07 00:22:20;;;;;;;0.40;0.40;;;;;;;9.71;100.00;6155.66;6184224;23;20225;-61
2023/12/07 00:24:48;;;;;;;0.63;0.63;;;;;;;9.60;100.00;6793.34;6184465;23;20524;-60
2023/12/07 00:27:16;;;;;;;0.50;0.50;;;;;;;9.55;100.00;6472.97;6184620;23;20186;-61
2023/12/07 00:29:43;;;;;;;1.03;0.67;;;;;;;9.33;100.00;6469.50;6184637;23;20594;-60
2023/12/07 00:32:10;;;;;;;1.03;0.60;;;;;;;9.67;100.00;6794.50;6184530;23;20159;-60
2023/12/07 00:34:37;;;;;;;0.60;0.50;;;;;;;9.58;100.00;7432.50;6184458;23;20162;-59
2023/12/07 00:37:05;;;;;;;0.37;0.37;;;;;;;9.71;100.00;8074.25;6184231;23;20586;-61
2023/12/07 00:39:32;;;;;;;0.50;0.50;;;;;;;9.68;100.00;7434.16;6184702;23;20478;-59
2023/12/07 00:41:59;;;;;;;0.60;0.60;;;;;;;9.77;100.00;7435.72;6183877;23;20254;-61
2023/12/07 00:44:28;;;;;;;0.60;0.47;;;;;;;9.61;100.00;7433.03;6183856;23;20166;-61
2023/12/07 00:46:55;;;;;;;0.37;0.37;;;;;;;9.72;100.00;7434.84;6184400;23;20170;-59
2023/12/07 00:49:22;;;;;;;0.40;0.40;;;;;;;9.67;100.00;7434.00;6184115;23;20212;-61
2023/12/07 00:51:49;;;;;;;0.33;0.33;;;;;;;9.67;100.00;7114.22;6183865;23;20205;-61
2023/12/07 00:54:16;;;;;;;0.40;0.40;;;;;;;9.59;100.00;6793.25;6184239;23;20163;-60
2023/12/07 00:56:43;;;;;;;0.30;0.30;;;;;;;9.61;100.00;7433.03;6183833;23;20162;-61
2023/12/07 00:59:10;;;;;;;0.40;0.40;;;;;;;9.69;100.00;8073.88;6184465;23;20181;-60
2023/12/07 01:01:39;;;;;;;0.20;0.20;;;;;;;9.62;100.00;8392.63;6184064;23;20240;-61
2023/12/07 01:04:06;;;;;;;0.27;0.27;;;;;;;9.67;100.00;7434.00;6184235;23;20640;-61
2023/12/07 01:06:33;;;;;;;0.43;0.43;;;;;;;9.64;100.00;7753.34;6184398;23;20533;-61
2023/12/07 01:09:00;;;;;;;0.20;0.20;;;;;;;9.74;100.00;7115.31;6183750;23;20166;-61
2023/12/07 01:11:27;;;;;;;0.37;0.37;;;;;;;9.80;100.00;6796.53;6184176;23;20166;-61
2023/12/07 01:13:54;;;;;;;0.30;0.30;;;;;;;9.77;100.00;6476.34;6183718;23;20220;-61
2023/12/07 01:16:21;;;;;;;0.20;0.20;;;;;;;9.78;100.00;6476.44;6183646;23;20163;-61
2023/12/07 01:18:50;;;;;;;0.30;0.30;;;;;;;9.78;100.00;6156.78;6183715;23;20174;-62
2023/12/07 01:21:17;;;;;;;0.27;0.27;;;;;;;9.80;100.00;5837.38;6183983;23;20166;-61
2023/12/07 01:23:44;;;;;;;0.40;0.40;;;;;;;9.67;100.00;4876.75;6183564;23;20198;-61
2023/12/07 01:26:11;;;;;;;0.37;0.37;;;;;;;9.60;100.00;5195.41;6184170;23;20154;-61
2023/12/07 01:28:38;;;;;;;0.40;0.40;;;;;;;9.75;100.00;5517.00;6183917;23;20557;-61
2023/12/07 01:31:05;;;;;;;0.30;0.30;;;;;;;9.68;100.00;4876.81;6183619;23;20170;-61
2023/12/07 01:33:32;;;;;;;0.30;0.30;;;;;;;9.76;100.00;4238.81;6183517;23;20162;-60
2023/12/07 01:36:01;;;;;;;0.40;0.40;;;;;;;9.79;100.00;4239.13;6183966;23;20236;-61
2023/12/07 01:38:28;;;;;;;0.50;0.47;;;;;;;9.75;100.00;4877.72;6183826;23;20162;-61
2023/12/07 01:40:55;;;;;;;0.83;0.33;;;;;;;9.52;100.00;4555.31;6183659;23;20224;-62
2023/12/07 01:43:23;;;;;;;0.50;0.50;;;;;;;9.38;100.00;4553.63;6183847;23;20178;-61
2023/12/07 01:45:53;;;;;;;0.40;0.40;;;;;;;9.61;100.00;3917.66;6183503;23;20216;-61
2023/12/07 01:48:21;;;;;;;0.40;0.40;;;;;;;9.67;100.00;4876.66;6183509;23;20158;-60
2023/12/07 01:50:48;;;;;;;0.40;0.40;;;;;;;9.66;100.00;4876.59;6183848;23;20279;-61
2023/12/07 01:53:18;;;;;;;0.30;0.30;;;;;;;9.58;100.00;5514.66;6183469;23;20194;-61
2023/12/07 01:55:46;;;;;;;0.27;0.27;;;;;;;9.59;100.00;4875.75;6183469;23;20166;-61
2023/12/07 01:58:13;;;;;;;0.40;0.40;;;;;;;9.53;100.00;6472.66;6183914;23;20163;-61
2023/12/07 02:00:40;;;;;;;0.40;0.40;;;;;;;9.46;100.00;6471.56;6183710;23;20162;-60
2023/12/07 02:03:07;;;;;;;1.20;0.60;;;;;;;9.52;100.00;6792.13;6183792;23;20580;-61
2023/12/07 02:05:36;;;;;;;0.40;0.40;;;;;;;9.50;100.00;7111.44;6183437;23;20165;-61
2023/12/07 02:08:03;;;;;;;0.50;0.50;;;;;;;9.47;100.00;7430.59;6183419;23;20159;-61
2023/12/07 02:10:31;;;;;;;0.30;0.30;;;;;;;9.41;100.00;7749.22;6183522;23;20163;-61
2023/12/07 02:12:58;;;;;;;0.30;0.30;;;;;;;9.49;100.00;6791.63;6184004;23;20162;-60
2023/12/07 02:15:25;;;;;;;0.37;0.37;;;;;;;9.49;100.00;7111.28;6183480;23;20162;-61
2023/12/07 02:18:01;;;;;;;0.53;0.40;;;;;;;9.46;100.00;7110.69;6183989;23;20162;-61
2023/12/07 02:20:38;;;;;;;0.40;0.40;;;;;;;9.47;100.00;7110.94;6183474;23;20170;-61
2023/12/07 02:23:08;;;;;;;0.30;0.30;;;;;;;9.47;100.00;6471.72;6183445;23;20224;-61
2023/12/07 02:28:31;;;;;;;0.30;0.30;;;;;;;9.50;100.00;7431.03;6139812;23;20181;-60
2023/12/07 02:30:58;;;;;;;0.20;0.20;;;;;;;9.46;100.00;8389.59;6183494;23;20225;-62
2023/12/07 02:33:25;;;;;;;0.30;0.30;;;;;;;9.34;100.00;8067.56;6183742;23;20154;-61
2023/12/07 02:35:52;;;;;;;0.33;0.20;;;;;;;9.40;100.00;7748.97;6184209;23;20249;-61
2023/12/07 02:38:21;;;;;;;0.30;0.30;;;;;;;9.11;100.00;7424.38;6185320;23;20225;-61
2023/12/07 02:40:50;;;;;;;0.30;0.30;;;;;;;9.47;100.00;8070.03;6185437;23;20170;-61
2023/12/07 02:43:18;;;;;;;0.10;0.10;;;;;;;9.46;100.00;8389.59;6185492;23;20183;-61
2023/12/07 02:45:46;;;;;;;0.20;0.20;;;;;;;9.09;100.00;9661.16;6185506;23;20158;-61
2023/12/07 02:48:13;;;;;;;0.30;0.30;;;;;;;9.38;100.00;8707.81;6185613;23;20527;-61
2023/12/07 02:50:40;;;;;;;0.20;0.20;;;;;;;9.28;100.00;9345.34;6185226;23;20162;-61
2023/12/07 02:53:07;;;;;;;0.27;0.27;;;;;;;9.26;100.00;9025.22;6185226;23;20198;-62
2023/12/07 02:55:35;;;;;;;0.20;0.20;;;;;;;9.33;100.00;8067.38;6185172;23;20166;-62
2023/12/07 02:58:02;;;;;;;0.30;0.30;;;;;;;9.33;100.00;9026.59;6185226;23;20233;-62
2023/12/07 03:00:29;;;;;;;0.30;0.30;;;;;;;9.25;100.00;9984.19;6185247;23;20606;-61
2023/12/07 03:02:57;;;;;;;0.27;0.27;;;;;;;9.14;100.00;9342.59;6184780;23;20182;-60
2023/12/07 03:05:24;;;;;;;0.20;0.20;;;;;;;9.13;100.00;9662.09;6185335;23;20229;-60
2023/12/07 03:07:51;;;;;;;0.30;0.30;;;;;;;9.18;100.00;8704.03;6185244;23;20611;-61
2023/12/07 03:10:18;;;;;;;0.30;0.30;;;;;;;9.15;100.00;8703.38;6185343;23;20166;-61
2023/12/07 03:12:45;;;;;;;0.30;0.30;;;;;;;9.12;100.00;8702.78;6184732;23;20154;-61
2023/12/07 03:15:13;;;;;;;0.20;0.20;;;;;;;9.09;100.00;9021.81;6185011;23;20247;-61
2023/12/07 03:17:40;;;;;;;0.30;0.30;;;;;;;9.13;100.00;8063.78;6184555;23;20162;-61
2023/12/07 03:20:10;;;;;;;0.30;0.30;;;;;;;9.16;100.00;8064.44;6185175;23;20211;-61
2023/12/07 03:22:37;;;;;;;0.40;0.40;;;;;;;9.17;100.00;9023.50;6184722;23;20188;-61
2023/12/07 03:25:04;;;;;;;1.17;0.20;;;;;;;9.00;100.00;10938.13;6184591;23;20190;-61
2023/12/07 03:27:31;;;;;;;0.33;0.33;;;;;;;9.06;100.00;10299.94;6184839;23;20162;-61
2023/12/07 03:29:58;;;;;;;0.40;0.40;;;;;;;9.08;100.00;9980.75;6185048;23;20233;-61
2023/12/07 03:32:25;;;;;;;0.33;0.33;;;;;;;9.17;100.00;8703.75;6184631;23;20159;-62
2023/12/07 03:34:52;;;;;;;0.33;0.33;;;;;;;9.10;100.00;10940.53;6184586;23;20158;-61
2023/12/07 03:37:21;;;;;;;0.50;0.50;;;;;;;9.08;100.00;9980.75;6184620;23;20159;-61
2023/12/07 03:39:48;;;;;;;0.30;0.30;;;;;;;9.00;100.00;10298.63;6184794;23;20601;-61
2023/12/07 03:42:15;;;;;;;0.30;0.30;;;;;;;9.10;100.00;9661.38;6184445;23;20162;-60
2023/12/07 03:44:42;;;;;;;0.30;0.30;;;;;;;9.21;100.00;8704.53;6184582;23;20201;-61
2023/12/07 03:47:10;;;;;;;0.30;0.30;;;;;;;9.13;100.00;9022.63;6184418;23;20506;-61
2023/12/07 03:49:38;;;;;;;0.20;0.20;;;;;;;9.18;100.00;10942.25;6184543;23;20162;-61
2023/12/07 03:52:06;;;;;;;0.30;0.30;;;;;;;9.16;100.00;10621.97;6184541;23;20206;-61
2023/12/07 03:54:35;;;;;;;0.50;0.50;;;;;;;9.21;100.00;9343.91;6184768;23;20236;-61
2023/12/07 03:57:02;;;;;;;0.27;0.27;;;;;;;9.27;100.00;9345.03;6184783;23;20601;-62
2023/12/07 03:59:29;;;;;;;0.23;0.23;;;;;;;9.31;100.00;9665.75;6184224;23;20224;-61
2023/12/07 04:01:56;;;;;;;0.30;0.30;;;;;;;9.34;100.00;9346.56;6184732;23;20162;-61
2023/12/07 04:04:23;;;;;;;0.30;0.30;;;;;;;9.27;100.00;9345.16;6184376;23;20352;-61
2023/12/07 04:06:50;;;;;;;0.20;0.20;;;;;;;9.24;100.00;9024.81;6184385;23;20593;-62
2023/12/07 04:09:17;;;;;;;0.23;0.23;;;;;;;9.09;100.00;9021.81;6184433;23;20198;-61
2023/12/07 04:11:46;;;;;;;0.30;0.30;;;;;;;9.09;100.00;7743.63;6184207;23;20162;-61
2023/12/07 04:14:15;;;;;;;0.30;0.30;;;;;;;9.12;100.00;8702.78;6184344;23;20158;-61
2023/12/07 04:16:42;;;;;;;0.40;0.40;;;;;;;9.07;100.00;7423.69;6184329;23;20169;-61
2023/12/07 04:19:09;;;;;;;0.20;0.20;;;;;;;8.99;100.00;8061.22;6184623;23;20258;-62
2023/12/07 04:21:36;;;;;;;0.27;0.20;;;;;;;8.84;100.00;8377.91;6184632;23;20158;-61
2023/12/07 04:24:03;;;;;;;0.30;0.30;;;;;;;8.74;100.00;7418.00;6184185;23;20182;-61
2023/12/07 04:26:30;;;;;;;0.50;0.50;;;;;;;8.76;100.00;4864.88;6183926;23;20185;-60
2023/12/07 04:28:59;;;;;;;0.40;0.40;;;;;;;8.71;100.00;3588.38;6184526;23;20162;-61
2023/12/07 04:31:26;;;;;;;0.60;0.60;;;;;;;8.70;100.00;3269.44;6184434;23;20224;-61
2023/12/07 04:33:53;;;;;;;0.60;0.60;;;;;;;8.52;100.00;1036.81;6184369;23;20150;-61
2023/12/07 04:36:20;;;;;;;1.40;1.40;;;;;;;8.51;100.00;-1192.44;6184127;23;20162;-61
2023/12/07 04:38:47;;;;;;;0.80;0.80;;;;;;;8.46;100.00;-1829.19;6184518;23;20162;-61
2023/12/07 04:41:14;;;;;;;0.50;0.50;;;;;;;8.31;100.00;-1193.06;6184055;23;20197;-61
2023/12/07 04:43:41;;;;;;;0.60;0.60;;;;;;;8.24;100.00;-238.53;6184188;23;20182;-62
2023/12/07 04:46:10;;;;;;;0.70;0.70;;;;;;;8.28;100.00;1035.19;6184399;23;20166;-61
2023/12/07 04:48:37;;;;;;;0.70;0.70;;;;;;;8.06;100.00;2625.75;6184504;23;20221;-62
2023/12/07 04:51:04;;;;;;;1.30;1.30;;;;;;;8.07;100.00;2625.81;6184056;23;20174;-60
2023/12/07 04:53:31;;;;;;;2.00;1.90;;;;;;;7.94;100.00;3261.53;6184150;23;20277;-62
2023/12/07 04:55:58;;;;;;;1.10;1.10;;;;;;;8.01;100.00;5173.88;6184189;23;20667;-61
2023/12/07 04:58:25;;;;;;;0.70;0.70;;;;;;;7.86;100.00;6765.38;6183961;23;20177;-61
2023/12/07 05:00:52;;;;;;;0.70;0.70;;;;;;;7.84;100.00;7402.72;6183819;23;20217;-61
2023/12/07 05:03:21;;;;;;;0.57;0.57;;;;;;;7.81;100.00;8677.81;6183883;23;20182;-61
2023/12/07 05:05:49;;;;;;;0.67;0.67;;;;;;;7.80;100.00;9634.59;6183601;23;20167;-62
2023/12/07 05:08:17;;;;;;;0.77;0.77;;;;;;;7.59;100.00;11225.22;6183776;23;20159;-62
2023/12/07 05:10:45;;;;;;;0.97;0.97;;;;;;;7.75;100.00;10590.72;6183644;23;20220;-61
2023/12/07 05:13:12;;;;;;;1.27;1.03;;;;;;;7.74;100.00;11867.09;6183542;23;20163;-62
2023/12/07 05:15:39;;;;;;;1.07;1.07;;;;;;;7.73;100.00;12185.94;6183951;23;20505;-61
2023/12/07 05:18:06;;;;;;;1.00;1.00;;;;;;;7.70;100.00;13143.16;6183865;23;20162;-61
2023/12/07 05:20:36;;;;;;;5.40;1.80;;;;;;;7.74;100.00;12505.59;6183502;23;20162;-62
2023/12/07 05:23:03;;;;;;;0.90;0.90;;;;;;;7.57;100.00;14097.44;6183906;23;20513;-60
2023/12/07 05:25:30;;;;;;;0.90;0.90;;;;;;;7.72;100.00;13143.69;6184019;23;20162;-61
2023/12/07 05:27:57;;;;;;;4.20;1.10;;;;;;;7.87;100.00;11550.78;6183519;23;20487;-62
2023/12/07 05:30:24;;;;;;;0.90;0.90;;;;;;;7.56;100.00;14097.16;6183561;23;20165;-62
2023/12/07 05:32:51;;;;;;;1.63;0.80;;;;;;;7.73;100.00;12824.63;6183915;23;20483;-61
2023/12/07 05:35:19;;;;;;;1.27;1.00;;;;;;;7.64;100.00;11864.66;6183598;23;20204;-61
2023/12/07 05:37:47;;;;;;;1.17;1.17;;;;;;;7.46;100.00;10903.16;6183637;23;20170;-61
2023/12/07 05:40:15;;;;;;;1.40;1.40;;;;;;;7.51;100.00;10585.22;6183531;23;20549;-62
2023/12/07 05:42:43;;;;;;;1.07;1.07;;;;;;;7.57;100.00;11543.69;6183900;23;20201;-62
2023/12/07 05:45:10;;;;;;;1.23;1.23;;;;;;;7.58;100.00;10905.81;6183997;23;20220;-63
2023/12/07 05:47:37;;;;;;;1.20;1.20;;;;;;;7.56;100.00;12820.19;6183421;23;20240;-61
2023/12/07 05:50:05;;;;;;;1.20;1.20;;;;;;;7.56;100.00;12500.88;6183764;23;20570;-61
2023/12/07 05:52:32;;;;;;;1.30;1.30;;;;;;;7.46;100.00;13775.22;6183471;23;20202;-61
2023/12/07 05:55:01;;;;;;;1.20;1.20;;;;;;;7.48;100.00;14414.22;6183872;23;20513;-61
2023/12/07 05:57:28;;;;;;;1.97;1.30;;;;;;;7.45;100.00;13774.78;6183349;23;20240;-61
2023/12/07 05:59:55;;;;;;;1.30;1.30;;;;;;;7.40;100.00;13773.53;6183725;23;20533;-61
2023/12/07 06:02:22;;;;;;;1.13;1.13;;;;;;;7.39;100.00;14092.50;6183390;23;20169;-61
2023/12/07 06:04:49;;;;;;;1.17;1.17;;;;;;;7.34;100.00;14091.22;6183265;23;20178;-61
2023/12/07 06:07:16;;;;;;;1.10;1.10;;;;;;;7.40;100.00;15369.91;6183575;23;20158;-62
2023/12/07 06:09:43;;;;;;;2.27;2.10;;;;;;;7.41;100.00;14731.66;6183869;23;20232;-62
2023/12/07 06:12:12;;;;;;;1.70;1.60;;;;;;;7.52;100.00;14096.03;6185079;23;20594;-62
2023/12/07 06:14:39;;;;;;;1.53;1.43;;;;;;;7.41;100.00;14412.34;6185214;23;20159;-61
2023/12/07 06:17:07;;;;;;;1.60;1.50;;;;;;;7.53;100.00;16332.47;6185646;23;20550;-60
2023/12/07 06:19:35;;;;;;;2.13;2.03;;;;;;;7.49;100.00;16650.72;6185132;23;20252;-61
2023/12/07 06:22:02;;;;;;;1.50;1.50;;;;;;;7.52;100.00;15693.13;6185121;23;20170;-61
2023/12/07 06:24:29;;;;;;;1.80;1.70;;;;;;;6.76;100.00;15989.13;6186917;23;20178;-62
2023/12/07 06:26:56;;;;;;;2.10;2.00;;;;;;;7.46;100.00;16649.59;6184745;23;20162;-61
2023/12/07 06:29:24;;;;;;;2.03;1.93;;;;;;;7.26;100.00;15046.53;6185063;23;20168;-63
2023/12/07 06:31:51;;;;;;;1.60;1.50;;;;;;;7.50;100.00;14414.78;6185352;23;20671;-62
2023/12/07 06:34:19;;;;;;;2.20;2.10;;;;;;;6.73;100.00;14074.19;6184548;23;20402;-62
2023/12/07 06:36:47;;;;;;;2.13;2.03;;;;;;;7.59;100.00;14417.38;6184946;23;20159;-63
2023/12/07 06:39:14;;;;;;;2.20;2.10;;;;;;;7.72;100.00;15699.16;6184886;23;20209;-64
2023/12/07 06:41:41;;;;;;;2.40;2.30;;;;;;;7.80;100.00;14103.94;6185329;23;20239;-63
2023/12/07 06:44:08;;;;;;;2.03;1.93;;;;;;;7.90;100.00;13787.09;6184879;23;20186;-63
2023/12/07 06:46:37;;;;;;;2.53;2.43;;;;;;;8.00;100.00;12192.72;6185190;23;20194;-63
2023/12/07 06:49:04;;;;;;;1.63;1.57;;;;;;;7.69;100.00;14420.38;6185316;23;20625;-62
2023/12/07 06:51:31;;;;;;;2.20;2.00;;;;;;;7.76;100.00;11548.38;6184789;23;20178;-61
2023/12/07 06:53:58;;;;;;;2.30;2.20;;;;;;;7.77;100.00;10272.06;6184980;23;20237;-65
2023/12/07 06:56:26;;;;;;;2.27;2.17;;;;;;;7.85;100.00;9954.50;6184644;23;20163;-62
2023/12/07 06:58:53;;;;;;;2.17;2.03;;;;;;;7.95;100.00;9956.63;6184963;23;20241;-63
2023/12/07 07:01:20;;;;;;;1.83;1.83;;;;;;;7.96;100.00;10914.41;6184679;23;20158;-63
2023/12/07 07:03:48;;;;;;;2.07;1.97;;;;;;;7.93;100.00;11552.22;6184396;23;20182;-63
2023/12/07 07:06:15;;;;;;;2.57;2.43;;;;;;;7.98;100.00;10276.56;6184861;23;20162;-62
2023/12/07 07:08:43;;;;;;;2.23;2.13;;;;;;;7.88;100.00;11231.78;6185196;23;20162;-62
2023/12/07 07:11:14;;;;;;;2.50;2.30;;;;;;;7.82;100.00;10273.03;6184627;23;20228;-63
2023/12/07 07:13:42;;;;;;;2.03;1.93;;;;;;;7.89;100.00;9636.38;6184072;23;20170;-63
2023/12/07 07:16:09;;;;;;;2.10;2.00;;;;;;;7.89;100.00;9317.31;6185221;23;20162;-62
2023/12/07 07:18:38;;;;;;;1.40;1.40;;;;;;;7.85;100.00;10911.88;6185126;23;20501;-63
2023/12/07 07:21:07;;;;;;;2.50;2.40;;;;;;;7.74;100.00;9952.25;6184472;23;20163;-63
2023/12/07 07:23:35;;;;;;;2.27;2.17;;;;;;;7.99;100.00;10276.66;6184343;23;20155;-62
2023/12/07 07:26:03;;;;;;;1.73;1.63;;;;;;;7.91;100.00;11232.50;6184923;23;20158;-63
2023/12/07 07:28:30;;;;;;;1.60;1.50;;;;;;;7.86;100.00;12508.41;6184476;23;20162;-63
2023/12/07 07:30:57;;;;;;;1.77;1.67;;;;;;;7.59;100.00;11225.22;6185014;23;20158;-63
2023/12/07 07:33:24;;;;;;;1.50;1.40;;;;;;;7.87;100.00;11550.91;6184905;23;20501;-62
2023/12/07 07:35:51;;;;;;;2.73;2.53;;;;;;;7.98;100.00;10914.97;6184448;23;20209;-63
2023/12/07 07:38:19;;;;;;;2.80;2.60;;;;;;;8.05;100.00;10597.22;6184913;23;20163;-63
2023/12/07 07:40:48;;;;;;;1.70;1.60;;;;;;;8.08;100.00;10278.75;6184420;23;20212;-63
2023/12/07 07:43:15;;;;;;;1.90;1.80;;;;;;;8.12;100.00;10279.63;6184476;23;20162;-63
2023/12/07 07:45:43;;;;;;;1.43;1.33;;;;;;;8.06;100.00;10597.44;6184555;23;20178;-64
2023/12/07 07:48:10;;;;;;;1.70;1.60;;;;;;;8.16;100.00;11557.75;6184427;23;20161;-63
2023/12/07 07:50:37;;;;;;;2.63;2.23;;;;;;;8.12;100.00;9641.06;6183839;23;20158;-63
2023/12/07 07:53:05;;;;;;;2.10;2.00;;;;;;;8.21;100.00;8047.13;6183700;23;20197;-63
2023/12/07 07:55:33;;;;;;;1.60;1.50;;;;;;;8.01;100.00;8681.59;6183811;23;20181;-64
2023/12/07 07:58:00;;;;;;;1.60;1.50;;;;;;;7.95;100.00;8361.44;6184031;23;20166;-62
2023/12/07 08:00:28;;;;;;;2.10;1.50;;;;;;;8.04;100.00;5811.78;6184578;23;20162;-63
2023/12/07 08:02:55;;;;;;;2.20;2.10;;;;;;;8.06;100.00;4537.16;6184444;23;20264;-62
2023/12/07 08:05:22;;;;;;;1.50;1.50;;;;;;;8.15;100.00;3900.91;6184019;23;20183;-62
2023/12/07 08:07:49;;;;;;;3.63;2.30;;;;;;;8.13;100.00;4219.34;6184437;23;20549;-64
2023/12/07 08:10:18;;;;;;;2.87;2.20;;;;;;;8.22;100.00;3264.41;6184908;23;20209;-62
2023/12/07 08:12:46;;;;;;;2.17;2.07;;;;;;;8.21;100.00;2945.69;6184230;23;20545;-63
2023/12/07 08:15:13;;;;;;;1.80;1.70;;;;;;;8.20;100.00;3264.19;6182777;23;20569;-64
2023/12/07 08:17:41;;;;;;;4.63;1.50;;;;;;;7.91;100.00;1350.97;6184079;23;20166;-64
2023/12/07 08:20:10;;;;;;;1.30;1.30;;;;;;;8.17;100.00;-557.13;6183923;23;20154;-64
2023/12/07 08:22:37;;;;;;;1.20;1.20;;;;;;;8.06;100.00;-557.59;6183027;23;20699;-64
2023/12/07 08:25:05;;;;;;;1.73;1.70;;;;;;;8.12;100.00;-1829.91;6183901;23;20644;-64
2023/12/07 08:27:33;;;;;;;1.60;1.50;;;;;;;8.27;100.00;-2783.94;6183708;23;20166;-64
2023/12/07 08:30:02;;;;;;;2.10;1.63;;;;;;;8.38;100.00;-3101.97;6184020;23;20162;-63
2023/12/07 08:32:29;;;;;;;1.50;1.40;;;;;;;8.19;100.00;-4373.72;6183429;23;20170;-63
2023/12/07 08:34:56;;;;;;;1.60;1.60;;;;;;;8.26;100.00;-6598.47;6183925;23;20155;-64
2023/12/07 08:37:23;;;;;;;2.37;2.10;;;;;;;8.28;100.00;-7551.53;6184064;23;20166;-64
2023/12/07 08:39:50;;;;;;;1.90;1.80;;;;;;;8.18;100.00;-7868.34;6183563;23;20216;-63
2023/12/07 08:42:17;;;;;;;5.47;3.33;;;;;;;8.29;100.00;-7233.97;6183743;23;20162;-64
2023/12/07 08:44:44;;;;;;;1.80;1.47;;;;;;;8.35;100.00;-6281.19;6183948;23;20609;-63
2023/12/07 08:47:13;;;;;;;2.33;2.17;;;;;;;8.28;100.00;-5645.34;6184500;23;20247;-63
2023/12/07 08:49:40;;;;;;;1.70;1.60;;;;;;;8.27;100.00;-5963.06;6183976;23;20158;-62
2023/12/07 08:52:07;;;;;;;1.80;1.70;;;;;;;8.20;100.00;-5645.00;6183639;23;20252;-63
2023/12/07 08:54:36;;;;;;;1.83;1.73;;;;;;;7.98;100.00;-6279.31;6183570;23;20593;-63
2023/12/07 08:57:03;;;;;;;6.47;1.60;;;;;;;8.05;100.00;-7232.38;6184219;23;20505;-62
2023/12/07 08:59:30;;;;;;;1.50;1.50;;;;;;;7.87;100.00;-5961.22;6183599;23;20205;-62
2023/12/07 09:01:57;;;;;;;4.83;1.30;;;;;;;7.90;100.00;-6913.91;6184185;23;20193;-62
2023/12/07 09:04:26;;;;;;;2.83;1.73;;;;;;;8.10;100.00;-6279.94;6183445;23;20182;-63
2023/12/07 09:06:53;;;;;;;2.07;1.70;;;;;;;8.02;100.00;-5644.28;6184068;23;20175;-62
2023/12/07 09:09:22;;;;;;;2.37;2.27;;;;;;;7.91;100.00;-5326.19;6183496;23;20174;-62
2023/12/07 09:11:49;;;;;;;1.60;1.50;;;;;;;8.10;100.00;-4373.53;6183433;23;20176;-61
2023/12/07 09:14:16;;;;;;;1.90;1.80;;;;;;;8.29;100.00;-4373.91;6183873;23;20261;-61
2023/12/07 09:16:45;;;;;;;2.13;2.00;;;;;;;8.24;100.00;-4373.81;6184239;23;20640;-62
2023/12/07 09:19:13;;;;;;;1.77;1.67;;;;;;;8.11;100.00;-4691.38;6183444;23;20169;-61
2023/12/07 09:21:42;;;;;;;2.53;2.43;;;;;;;8.27;100.00;-6598.50;6183477;23;20159;-63
2023/12/07 09:24:09;;;;;;;2.43;2.33;;;;;;;8.32;100.00;-7551.81;6183569;23;20264;-63
2023/12/07 09:26:37;;;;;;;2.53;2.17;;;;;;;8.32;100.00;-8504.56;6183809;23;20169;-62
2023/12/07 09:29:04;;;;;;;2.07;1.97;;;;;;;8.34;100.00;-9139.72;6183837;23;20158;-62
2023/12/07 09:31:32;;;;;;;2.03;1.87;;;;;;;8.41;100.00;-9775.38;6184397;23;20158;-62
2023/12/07 09:33:59;;;;;;;3.63;2.13;;;;;;;8.41;100.00;-10727.69;6183748;23;20166;-63
2023/12/07 09:36:27;;;;;;;2.17;2.07;;;;;;;8.32;100.00;-11361.16;6183466;23;20197;-62
2023/12/07 09:38:56;;;;;;;2.37;2.27;;;;;;;8.38;100.00;-11361.97;6184480;23;20629;-61
2023/12/07 09:41:24;;;;;;;1.50;1.40;;;;;;;8.40;100.00;-10727.56;6183868;23;20166;-61
2023/12/07 09:43:51;;;;;;;1.37;1.30;;;;;;;8.29;100.00;-9774.16;6184444;23;20162;-62
2023/12/07 09:46:19;;;;;;;4.40;1.60;;;;;;;8.20;100.00;-10090.56;6185376;23;20181;-62
2023/12/07 09:48:50;;;;;;;2.10;1.30;;;;;;;8.22;100.00;-10090.72;6186242;23;20158;-62
2023/12/07 09:51:17;;;;;;;1.77;1.67;;;;;;;8.29;100.00;-9774.16;6186765;23;20182;-62
2023/12/07 09:53:46;;;;;;;3.13;1.90;;;;;;;8.33;100.00;-8822.13;6185528;23;20201;-62
2023/12/07 09:56:14;;;;;;;1.90;1.83;;;;;;;8.15;100.00;-5009.28;6185022;23;20166;-60
2023/12/07 09:58:42;;;;;;;1.77;1.67;;;;;;;8.23;100.00;-6280.59;6185282;23;20162;-62
2023/12/07 10:01:09;;;;;;;1.60;1.60;;;;;;;8.35;100.00;-6916.69;6185348;23;20182;-61
2023/12/07 10:03:36;;;;;;;1.97;1.87;;;;;;;8.12;100.00;-2466.00;6185462;23;20162;-62
2023/12/07 10:06:03;;;;;;;2.00;1.60;;;;;;;8.17;100.00;-3102.00;6185143;23;20178;-62
2023/12/07 10:08:31;;;;;;;1.90;1.80;;;;;;;8.22;100.00;-3101.97;6185083;23;20162;-63
2023/12/07 10:11:08;;;;;;;1.43;1.43;;;;;;;8.17;100.00;-2783.97;6186186;23;20577;-61
2023/12/07 10:13:38;;;;;;;2.10;2.00;;;;;;;8.23;100.00;398.06;6185491;23;20158;-61
2023/12/07 10:16:13;;;;;;;1.90;1.80;;;;;;;8.14;100.00;715.88;6185463;23;20273;-62
2023/12/07 10:18:41;;;;;;;2.00;1.90;;;;;;;8.32;100.00;1035.44;6185156;23;20157;-61
2023/12/07 10:21:10;;;;;;;2.10;2.00;;;;;;;8.39;100.00;-237.84;6185683;23;20471;-61
2023/12/07 10:23:37;;;;;;;2.30;2.20;;;;;;;8.27;100.00;4221.03;6185486;23;20194;-64
2023/12/07 10:26:06;;;;;;;2.67;2.47;;;;;;;8.34;100.00;5178.31;6184994;23;20178;-61
2023/12/07 10:28:37;;;;;;;2.60;2.50;;;;;;;8.34;100.00;7092.19;6185090;23;20166;-62
2023/12/07 10:31:04;;;;;;;2.70;2.60;;;;;;;8.21;100.00;4539.03;6185264;23;20166;-62
2023/12/07 10:33:31;;;;;;;2.00;1.90;;;;;;;8.33;100.00;2628.25;6185165;23;20241;-62
2023/12/07 10:35:58;;;;;;;2.10;2.00;;;;;;;8.27;100.00;4858.59;6185273;23;20155;-61
2023/12/07 10:38:25;;;;;;;2.53;2.43;;;;;;;8.28;100.00;5177.53;6184976;23;20163;-61
2023/12/07 10:41:06;;;;;;;2.67;2.57;;;;;;;8.51;100.00;5818.59;6185349;23;20158;-61
2023/12/07 10:43:40;;;;;;;2.50;2.33;;;;;;;8.53;100.00;6138.00;6185074;23;20180;-62
2023/12/07 10:46:10;;;;;;;2.43;2.10;;;;;;;8.60;100.00;6139.06;6184835;23;20182;-63
2023/12/07 10:48:37;;;;;;;2.00;1.90;;;;;;;8.59;100.00;8054.09;6185927;23;20159;-63
2023/12/07 10:51:09;;;;;;;2.20;2.10;;;;;;;8.14;100.00;11237.91;6185115;23;20170;-62
2023/12/07 10:53:43;;;;;;;2.53;2.40;;;;;;;8.56;100.00;11567.25;6184649;23;20723;-62
2023/12/07 10:56:15;;;;;;;2.37;2.27;;;;;;;8.55;100.00;11886.75;6184569;23;20237;-63
2023/12/07 10:58:43;;;;;;;3.33;3.23;;;;;;;8.63;100.00;13487.34;6185400;23;20213;-63
2023/12/07 11:01:13;;;;;;;3.17;3.07;;;;;;;8.49;100.00;11565.69;6185757;23;20170;-63
2023/12/07 11:03:41;;;;;;;3.23;3.13;;;;;;;8.43;100.00;11883.81;6184540;23;20221;-63
2023/12/07 11:06:09;;;;;;;3.60;3.40;;;;;;;8.47;100.00;11884.78;6185119;23;20205;-65
2023/12/07 11:08:41;;;;;;;3.17;3.07;;;;;;;8.37;100.00;14439.66;6184531;23;20158;-63
2023/12/07 11:11:16;;;;;;;3.63;3.43;;;;;;;8.33;100.00;13798.88;6185116;23;20162;-63
2023/12/07 11:13:51;;;;;;;4.07;3.87;;;;;;;8.35;100.00;13479.88;6184839;23;20212;-62
2023/12/07 11:16:30;;;;;;;3.63;3.43;;;;;;;8.21;100.00;9642.94;6184781;23;20213;-63
2023/12/07 11:18:57;;;;;;;4.70;4.50;;;;;;;8.35;100.00;9645.78;6184632;23;20498;-64
2023/12/07 11:21:24;;;;;;;4.40;4.20;;;;;;;8.27;100.00;11240.94;6184719;23;20554;-63
2023/12/07 11:23:51;;;;;;;3.53;3.33;;;;;;;8.19;100.00;10600.34;6185558;23;20664;-64
2023/12/07 11:26:20;;;;;;;4.47;4.17;;;;;;;8.01;100.00;5173.88;6185103;23;20178;-64
2023/12/07 11:28:48;;;;;;;4.37;4.17;;;;;;;7.93;100.00;2624.47;6185841;23;20166;-63
2023/12/07 11:31:23;;;;;;;4.10;3.90;;;;;;;7.54;100.00;3257.41;6185079;23;20177;-64
2023/12/07 11:33:50;;;;;;;4.60;4.40;;;;;;;7.50;100.00;1666.06;6185589;23;20577;-64
2023/12/07 11:36:17;;;;;;;4.43;4.23;;;;;;;7.57;100.00;76.31;6185447;23;20217;-64
2023/12/07 11:39:20;;;;;;;4.37;4.07;;;;;;;7.43;100.00;-242.34;6185259;23;20169;-63
2023/12/07 11:41:51;;;;;;;4.23;4.03;;;;;;;7.47;100.00;-242.13;6184308;23;20193;-63
2023/12/07 11:44:19;;;;;;;4.30;4.10;;;;;;;7.33;100.00;75.06;6185102;23;20590;-64